sensor_id;sensor_type;location;lat;lon;timestamp;P1;durP1;ratioP1;P2;durP2;ratioP2
85154;SDS011;75523;53.218;6.564;2024-03-08T00:02:13;334.92;;;315.55;;
85154;SDS011;75523;53.218;6.564;2024-03-08T00:04:39;326.52;;;308.02;;
85154;SDS011;75523;53.218;6.564;2024-03-08T00:07:04;320.73;;;302.23;;
85154;SDS011;75523;53.218;6.564;2024-03-08T00:09:29;318.45;;;300.23;;
85154;SDS011;75523;53.218;6.564;2024-03-08T00:11:56;327.13;;;308.60;;
85154;SDS011;75523;53.218;6.564;2024-03-08T00:14:21;322.00;;;303.45;;
85154;SDS011;75523;53.218;6.564;2024-03-08T00:16:47;323.70;;;305.35;;
85154;SDS011;75523;53.218;6.564;2024-03-08T00:19:12;311.85;;;293.55;;
85154;SDS011;75523;53.218;6.564;2024-03-08T00:21:37;325.65;;;306.45;;
85154;SDS011;75523;53.218;6.564;2024-03-08T00:24:03;323.67;;;305.27;;
85154;SDS011;75523;53.218;6.564;2024-03-08T00:26:29;318.13;;;300.08;;
85154;SDS011;75523;53.218;6.564;2024-03-08T00:28:54;317.60;;;299.58;;
85154;SDS011;75523;53.218;6.564;2024-03-08T00:31:21;322.83;;;303.73;;
85154;SDS011;75523;53.218;6.564;2024-03-08T00:33:46;329.23;;;310.00;;
85154;SDS011;75523;53.218;6.564;2024-03-08T00:36:11;329.90;;;310.60;;
85154;SDS011;75523;53.218;6.564;2024-03-08T00:38:37;330.15;;;311.23;;
85154;SDS011;75523;53.218;6.564;2024-03-08T00:41:02;338.40;;;318.58;;
85154;SDS011;75523;53.218;6.564;2024-03-08T00:43:28;332.85;;;313.17;;
85154;SDS011;75523;53.218;6.564;2024-03-08T00:45:55;314.98;;;296.90;;
85154;SDS011;75523;53.218;6.564;2024-03-08T00:48:21;333.90;;;314.13;;
85154;SDS011;75523;53.218;6.564;2024-03-08T00:50:48;328.98;;;310.45;;
85154;SDS011;75523;53.218;6.564;2024-03-08T00:53:13;335.05;;;315.63;;
85154;SDS011;75523;53.218;6.564;2024-03-08T00:55:38;323.20;;;304.05;;
85154;SDS011;75523;53.218;6.564;2024-03-08T00:58:04;337.05;;;316.60;;
85154;SDS011;75523;53.218;6.564;2024-03-08T01:00:30;324.58;;;305.52;;
85154;SDS011;75523;53.218;6.564;2024-03-08T01:02:55;321.95;;;302.73;;
85154;SDS011;75523;53.218;6.564;2024-03-08T01:05:21;326.23;;;307.10;;
85154;SDS011;75523;53.218;6.564;2024-03-08T01:07:48;334.13;;;314.83;;
85154;SDS011;75523;53.218;6.564;2024-03-08T01:10:14;320.77;;;301.52;;
85154;SDS011;75523;53.218;6.564;2024-03-08T01:12:40;334.90;;;315.38;;
85154;SDS011;75523;53.218;6.564;2024-03-08T01:15:08;337.02;;;317.17;;
85154;SDS011;75523;53.218;6.564;2024-03-08T01:17:34;331.15;;;311.40;;
85154;SDS011;75523;53.218;6.564;2024-03-08T01:20:00;319.90;;;300.90;;
85154;SDS011;75523;53.218;6.564;2024-03-08T01:22:25;337.25;;;317.45;;
85154;SDS011;75523;53.218;6.564;2024-03-08T01:24:50;335.35;;;315.92;;
85154;SDS011;75523;53.218;6.564;2024-03-08T01:27:16;338.48;;;318.52;;
85154;SDS011;75523;53.218;6.564;2024-03-08T01:29:41;330.67;;;311.27;;
85154;SDS011;75523;53.218;6.564;2024-03-08T01:32:07;329.85;;;310.85;;
85154;SDS011;75523;53.218;6.564;2024-03-08T01:34:33;340.63;;;320.88;;
85154;SDS011;75523;53.218;6.564;2024-03-08T01:36:58;330.23;;;310.77;;
85154;SDS011;75523;53.218;6.564;2024-03-08T01:39:24;326.35;;;306.95;;
85154;SDS011;75523;53.218;6.564;2024-03-08T01:41:50;326.73;;;306.73;;
85154;SDS011;75523;53.218;6.564;2024-03-08T01:44:15;334.15;;;315.02;;
85154;SDS011;75523;53.218;6.564;2024-03-08T01:46:45;322.73;;;304.07;;
85154;SDS011;75523;53.218;6.564;2024-03-08T01:49:11;311.08;;;292.67;;
85154;SDS011;75523;53.218;6.564;2024-03-08T01:51:38;332.85;;;313.65;;
85154;SDS011;75523;53.218;6.564;2024-03-08T01:54:05;324.30;;;305.10;;
85154;SDS011;75523;53.218;6.564;2024-03-08T01:56:30;337.60;;;317.90;;
85154;SDS011;75523;53.218;6.564;2024-03-08T01:58:59;331.95;;;312.65;;
85154;SDS011;75523;53.218;6.564;2024-03-08T02:01:25;327.95;;;308.15;;
85154;SDS011;75523;53.218;6.564;2024-03-08T02:03:51;330.00;;;310.70;;
85154;SDS011;75523;53.218;6.564;2024-03-08T02:06:16;329.58;;;310.33;;
85154;SDS011;75523;53.218;6.564;2024-03-08T02:08:42;319.35;;;300.60;;
85154;SDS011;75523;53.218;6.564;2024-03-08T02:11:10;322.52;;;304.10;;
85154;SDS011;75523;53.218;6.564;2024-03-08T02:13:35;321.75;;;303.23;;
85154;SDS011;75523;53.218;6.564;2024-03-08T02:16:01;327.73;;;308.67;;
85154;SDS011;75523;53.218;6.564;2024-03-08T02:18:27;318.20;;;299.55;;
85154;SDS011;75523;53.218;6.564;2024-03-08T02:20:56;324.90;;;306.08;;
85154;SDS011;75523;53.218;6.564;2024-03-08T02:23:23;330.00;;;311.17;;
85154;SDS011;75523;53.218;6.564;2024-03-08T02:25:51;321.85;;;304.00;;
85154;SDS011;75523;53.218;6.564;2024-03-08T02:28:18;322.38;;;303.20;;
85154;SDS011;75523;53.218;6.564;2024-03-08T02:30:44;313.35;;;294.85;;
85154;SDS011;75523;53.218;6.564;2024-03-08T02:33:13;316.95;;;298.50;;
85154;SDS011;75523;53.218;6.564;2024-03-08T02:35:41;329.67;;;310.80;;
85154;SDS011;75523;53.218;6.564;2024-03-08T02:38:07;319.48;;;301.70;;
85154;SDS011;75523;53.218;6.564;2024-03-08T02:40:33;318.90;;;300.60;;
85154;SDS011;75523;53.218;6.564;2024-03-08T02:42:58;324.77;;;306.75;;
85154;SDS011;75523;53.218;6.564;2024-03-08T02:45:24;327.25;;;308.90;;
85154;SDS011;75523;53.218;6.564;2024-03-08T02:47:49;318.15;;;300.08;;
85154;SDS011;75523;53.218;6.564;2024-03-08T02:50:15;321.08;;;303.00;;
85154;SDS011;75523;53.218;6.564;2024-03-08T02:52:41;314.83;;;297.42;;
85154;SDS011;75523;53.218;6.564;2024-03-08T02:55:11;313.45;;;296.30;;
85154;SDS011;75523;53.218;6.564;2024-03-08T02:57:40;321.95;;;303.92;;
85154;SDS011;75523;53.218;6.564;2024-03-08T03:00:06;320.20;;;302.42;;
85154;SDS011;75523;53.218;6.564;2024-03-08T03:02:34;327.05;;;309.13;;
85154;SDS011;75523;53.218;6.564;2024-03-08T03:05:00;313.70;;;296.20;;
85154;SDS011;75523;53.218;6.564;2024-03-08T03:07:30;327.75;;;309.75;;
85154;SDS011;75523;53.218;6.564;2024-03-08T03:09:55;326.85;;;308.77;;
85154;SDS011;75523;53.218;6.564;2024-03-08T03:12:21;317.48;;;300.10;;
85154;SDS011;75523;53.218;6.564;2024-03-08T03:14:46;320.52;;;302.85;;
85154;SDS011;75523;53.218;6.564;2024-03-08T03:17:12;320.20;;;302.80;;
85154;SDS011;75523;53.218;6.564;2024-03-08T03:19:40;316.00;;;298.13;;
85154;SDS011;75523;53.218;6.564;2024-03-08T03:22:05;318.00;;;300.90;;
85154;SDS011;75523;53.218;6.564;2024-03-08T03:24:32;318.63;;;301.20;;
85154;SDS011;75523;53.218;6.564;2024-03-08T03:26:58;315.63;;;298.65;;
85154;SDS011;75523;53.218;6.564;2024-03-08T03:29:24;321.98;;;304.77;;
85154;SDS011;75523;53.218;6.564;2024-03-08T03:31:50;306.88;;;290.45;;
85154;SDS011;75523;53.218;6.564;2024-03-08T03:34:16;322.20;;;305.30;;
85154;SDS011;75523;53.218;6.564;2024-03-08T03:36:41;332.25;;;314.38;;
85154;SDS011;75523;53.218;6.564;2024-03-08T03:39:08;314.65;;;297.52;;
85154;SDS011;75523;53.218;6.564;2024-03-08T03:41:41;322.35;;;304.63;;
85154;SDS011;75523;53.218;6.564;2024-03-08T03:44:11;314.42;;;297.58;;
85154;SDS011;75523;53.218;6.564;2024-03-08T03:46:36;323.75;;;306.20;;
85154;SDS011;75523;53.218;6.564;2024-03-08T03:49:02;322.00;;;304.38;;
85154;SDS011;75523;53.218;6.564;2024-03-08T03:51:28;330.35;;;312.23;;
85154;SDS011;75523;53.218;6.564;2024-03-08T03:53:54;316.15;;;299.05;;
85154;SDS011;75523;53.218;6.564;2024-03-08T03:56:24;325.33;;;307.40;;
85154;SDS011;75523;53.218;6.564;2024-03-08T03:58:51;323.73;;;306.25;;
85154;SDS011;75523;53.218;6.564;2024-03-08T04:01:16;317.23;;;300.17;;
85154;SDS011;75523;53.218;6.564;2024-03-08T04:03:42;312.52;;;295.58;;
85154;SDS011;75523;53.218;6.564;2024-03-08T04:06:08;300.95;;;284.83;;
85154;SDS011;75523;53.218;6.564;2024-03-08T04:08:33;301.52;;;285.17;;
85154;SDS011;75523;53.218;6.564;2024-03-08T04:11:00;308.58;;;291.63;;
85154;SDS011;75523;53.218;6.564;2024-03-08T04:13:25;310.73;;;293.63;;
85154;SDS011;75523;53.218;6.564;2024-03-08T04:15:51;310.00;;;293.27;;
85154;SDS011;75523;53.218;6.564;2024-03-08T04:18:16;315.77;;;298.73;;
85154;SDS011;75523;53.218;6.564;2024-03-08T04:20:43;310.55;;;293.77;;
85154;SDS011;75523;53.218;6.564;2024-03-08T04:23:08;308.75;;;291.92;;
85154;SDS011;75523;53.218;6.564;2024-03-08T04:25:34;311.98;;;295.88;;
85154;SDS011;75523;53.218;6.564;2024-03-08T04:27:59;315.80;;;298.70;;
85154;SDS011;75523;53.218;6.564;2024-03-08T04:30:25;307.40;;;290.30;;
85154;SDS011;75523;53.218;6.564;2024-03-08T04:32:53;317.63;;;300.25;;
85154;SDS011;75523;53.218;6.564;2024-03-08T04:35:19;313.33;;;296.70;;
85154;SDS011;75523;53.218;6.564;2024-03-08T04:37:45;317.83;;;300.60;;
85154;SDS011;75523;53.218;6.564;2024-03-08T04:40:11;314.67;;;298.13;;
85154;SDS011;75523;53.218;6.564;2024-03-08T04:42:36;320.42;;;303.67;;
85154;SDS011;75523;53.218;6.564;2024-03-08T04:45:02;313.70;;;297.05;;
85154;SDS011;75523;53.218;6.564;2024-03-08T04:47:29;297.90;;;282.42;;
85154;SDS011;75523;53.218;6.564;2024-03-08T04:49:54;318.13;;;301.50;;
85154;SDS011;75523;53.218;6.564;2024-03-08T04:52:21;321.42;;;304.33;;
85154;SDS011;75523;53.218;6.564;2024-03-08T04:54:47;310.45;;;293.88;;
85154;SDS011;75523;53.218;6.564;2024-03-08T04:57:12;319.27;;;302.40;;
85154;SDS011;75523;53.218;6.564;2024-03-08T04:59:38;318.38;;;301.90;;
85154;SDS011;75523;53.218;6.564;2024-03-08T05:02:03;318.45;;;301.83;;
85154;SDS011;75523;53.218;6.564;2024-03-08T05:04:29;304.20;;;288.08;;
85154;SDS011;75523;53.218;6.564;2024-03-08T05:06:54;308.10;;;292.02;;
85154;SDS011;75523;53.218;6.564;2024-03-08T05:09:20;314.42;;;297.88;;
85154;SDS011;75523;53.218;6.564;2024-03-08T05:11:46;320.13;;;303.27;;
85154;SDS011;75523;53.218;6.564;2024-03-08T05:14:12;317.48;;;301.05;;
85154;SDS011;75523;53.218;6.564;2024-03-08T05:16:44;315.15;;;298.60;;
85154;SDS011;75523;53.218;6.564;2024-03-08T05:19:14;301.88;;;285.95;;
85154;SDS011;75523;53.218;6.564;2024-03-08T05:21:45;313.10;;;296.80;;
85154;SDS011;75523;53.218;6.564;2024-03-08T05:24:11;303.77;;;288.02;;
85154;SDS011;75523;53.218;6.564;2024-03-08T05:26:38;324.02;;;306.77;;
85154;SDS011;75523;53.218;6.564;2024-03-08T05:29:04;311.40;;;294.98;;
85154;SDS011;75523;53.218;6.564;2024-03-08T05:31:30;320.17;;;303.20;;
85154;SDS011;75523;53.218;6.564;2024-03-08T05:33:57;313.13;;;296.92;;
85154;SDS011;75523;53.218;6.564;2024-03-08T05:36:23;311.38;;;294.95;;
85154;SDS011;75523;53.218;6.564;2024-03-08T05:38:48;326.63;;;309.50;;
85154;SDS011;75523;53.218;6.564;2024-03-08T05:41:15;319.83;;;303.58;;
85154;SDS011;75523;53.218;6.564;2024-03-08T05:43:41;327.23;;;310.08;;
85154;SDS011;75523;53.218;6.564;2024-03-08T05:46:07;315.75;;;299.33;;
85154;SDS011;75523;53.218;6.564;2024-03-08T05:48:33;307.50;;;291.42;;
85154;SDS011;75523;53.218;6.564;2024-03-08T05:51:00;308.60;;;292.52;;
85154;SDS011;75523;53.218;6.564;2024-03-08T05:53:25;314.75;;;298.52;;
85154;SDS011;75523;53.218;6.564;2024-03-08T05:55:51;321.08;;;304.38;;
85154;SDS011;75523;53.218;6.564;2024-03-08T05:58:17;318.55;;;302.02;;
85154;SDS011;75523;53.218;6.564;2024-03-08T06:00:42;315.98;;;299.63;;
85154;SDS011;75523;53.218;6.564;2024-03-08T06:03:08;329.88;;;312.83;;
85154;SDS011;75523;53.218;6.564;2024-03-08T06:05:33;324.58;;;308.05;;
85154;SDS011;75523;53.218;6.564;2024-03-08T06:07:58;314.48;;;297.98;;
85154;SDS011;75523;53.218;6.564;2024-03-08T06:10:24;312.20;;;295.85;;
85154;SDS011;75523;53.218;6.564;2024-03-08T06:12:49;320.85;;;304.25;;
85154;SDS011;75523;53.218;6.564;2024-03-08T06:15:16;312.98;;;296.85;;
85154;SDS011;75523;53.218;6.564;2024-03-08T06:17:42;321.23;;;304.58;;
85154;SDS011;75523;53.218;6.564;2024-03-08T06:20:07;329.05;;;312.17;;
85154;SDS011;75523;53.218;6.564;2024-03-08T06:22:37;321.90;;;305.27;;
85154;SDS011;75523;53.218;6.564;2024-03-08T06:25:05;310.55;;;294.88;;
85154;SDS011;75523;53.218;6.564;2024-03-08T06:27:31;320.90;;;303.98;;
85154;SDS011;75523;53.218;6.564;2024-03-08T06:29:59;319.33;;;302.98;;
85154;SDS011;75523;53.218;6.564;2024-03-08T06:32:24;324.40;;;307.58;;
85154;SDS011;75523;53.218;6.564;2024-03-08T06:34:50;318.33;;;301.85;;
85154;SDS011;75523;53.218;6.564;2024-03-08T06:37:16;320.17;;;303.95;;
85154;SDS011;75523;53.218;6.564;2024-03-08T06:39:47;310.58;;;294.52;;
85154;SDS011;75523;53.218;6.564;2024-03-08T06:42:13;311.75;;;295.48;;
85154;SDS011;75523;53.218;6.564;2024-03-08T06:44:38;317.00;;;300.85;;
85154;SDS011;75523;53.218;6.564;2024-03-08T06:47:10;308.95;;;293.08;;
85154;SDS011;75523;53.218;6.564;2024-03-08T06:49:36;307.80;;;291.58;;
85154;SDS011;75523;53.218;6.564;2024-03-08T06:52:01;313.50;;;297.13;;
85154;SDS011;75523;53.218;6.564;2024-03-08T06:54:27;319.50;;;303.33;;
85154;SDS011;75523;53.218;6.564;2024-03-08T06:56:52;316.60;;;301.02;;
85154;SDS011;75523;53.218;6.564;2024-03-08T06:59:17;319.00;;;302.80;;
85154;SDS011;75523;53.218;6.564;2024-03-08T07:01:43;313.27;;;297.60;;
85154;SDS011;75523;53.218;6.564;2024-03-08T07:04:08;314.27;;;297.63;;
85154;SDS011;75523;53.218;6.564;2024-03-08T07:06:34;298.95;;;283.85;;
85154;SDS011;75523;53.218;6.564;2024-03-08T07:08:59;312.40;;;296.63;;
85154;SDS011;75523;53.218;6.564;2024-03-08T07:11:25;303.83;;;287.55;;
85154;SDS011;75523;53.218;6.564;2024-03-08T07:13:50;312.90;;;296.63;;
85154;SDS011;75523;53.218;6.564;2024-03-08T07:16:16;310.08;;;294.08;;
85154;SDS011;75523;53.218;6.564;2024-03-08T07:18:41;297.45;;;282.42;;
85154;SDS011;75523;53.218;6.564;2024-03-08T07:21:08;307.08;;;291.60;;
85154;SDS011;75523;53.218;6.564;2024-03-08T07:23:35;297.92;;;282.25;;
85154;SDS011;75523;53.218;6.564;2024-03-08T07:26:32;309.38;;;293.48;;
85154;SDS011;75523;53.218;6.564;2024-03-08T07:28:58;312.40;;;296.33;;
85154;SDS011;75523;53.218;6.564;2024-03-08T07:31:25;303.13;;;287.30;;
85154;SDS011;75523;53.218;6.564;2024-03-08T07:33:51;311.98;;;295.77;;
85154;SDS011;75523;53.218;6.564;2024-03-08T07:36:18;317.10;;;300.83;;
85154;SDS011;75523;53.218;6.564;2024-03-08T07:38:44;319.33;;;302.75;;
85154;SDS011;75523;53.218;6.564;2024-03-08T07:41:12;309.33;;;293.20;;
85154;SDS011;75523;53.218;6.564;2024-03-08T07:43:38;306.85;;;291.23;;
85154;SDS011;75523;53.218;6.564;2024-03-08T07:46:03;312.75;;;296.88;;
85154;SDS011;75523;53.218;6.564;2024-03-08T07:48:29;309.33;;;293.42;;
85154;SDS011;75523;53.218;6.564;2024-03-08T07:50:55;309.02;;;293.13;;
85154;SDS011;75523;53.218;6.564;2024-03-08T07:53:21;313.70;;;297.67;;
85154;SDS011;75523;53.218;6.564;2024-03-08T07:55:46;303.83;;;288.08;;
85154;SDS011;75523;53.218;6.564;2024-03-08T07:58:12;296.17;;;280.50;;
85154;SDS011;75523;53.218;6.564;2024-03-08T08:00:38;304.30;;;288.63;;
85154;SDS011;75523;53.218;6.564;2024-03-08T08:03:04;319.52;;;302.58;;
85154;SDS011;75523;53.218;6.564;2024-03-08T08:05:30;308.02;;;292.08;;
85154;SDS011;75523;53.218;6.564;2024-03-08T08:08:00;319.70;;;303.10;;
85154;SDS011;75523;53.218;6.564;2024-03-08T08:12:53;317.95;;;301.20;;
85154;SDS011;75523;53.218;6.564;2024-03-08T08:15:19;317.75;;;301.60;;
85154;SDS011;75523;53.218;6.564;2024-03-08T08:17:45;322.48;;;305.55;;
85154;SDS011;75523;53.218;6.564;2024-03-08T08:20:11;319.15;;;302.15;;
85154;SDS011;75523;53.218;6.564;2024-03-08T08:22:37;310.33;;;294.13;;
85154;SDS011;75523;53.218;6.564;2024-03-08T08:25:09;308.27;;;292.10;;
85154;SDS011;75523;53.218;6.564;2024-03-08T08:27:37;314.08;;;297.60;;
85154;SDS011;75523;53.218;6.564;2024-03-08T08:30:05;303.77;;;287.87;;
85154;SDS011;75523;53.218;6.564;2024-03-08T08:32:33;313.75;;;297.55;;
85154;SDS011;75523;53.218;6.564;2024-03-08T08:35:00;302.13;;;286.60;;
85154;SDS011;75523;53.218;6.564;2024-03-08T08:37:27;299.23;;;283.20;;
85154;SDS011;75523;53.218;6.564;2024-03-08T08:39:53;308.58;;;292.52;;
85154;SDS011;75523;53.218;6.564;2024-03-08T08:42:19;311.83;;;295.35;;
85154;SDS011;75523;53.218;6.564;2024-03-08T08:44:44;317.92;;;301.27;;
85154;SDS011;75523;53.218;6.564;2024-03-08T08:47:11;305.63;;;289.50;;
85154;SDS011;75523;53.218;6.564;2024-03-08T08:49:36;296.20;;;280.27;;
85154;SDS011;75523;53.218;6.564;2024-03-08T08:52:02;307.45;;;291.38;;
85154;SDS011;75523;53.218;6.564;2024-03-08T08:54:28;302.95;;;286.85;;
85154;SDS011;75523;53.218;6.564;2024-03-08T08:56:53;286.42;;;270.73;;
85154;SDS011;75523;53.218;6.564;2024-03-08T08:59:19;280.45;;;265.27;;
85154;SDS011;75523;53.218;6.564;2024-03-08T09:01:45;276.85;;;262.00;;
85154;SDS011;75523;53.218;6.564;2024-03-08T09:04:15;281.80;;;266.40;;
85154;SDS011;75523;53.218;6.564;2024-03-08T09:06:41;286.33;;;270.60;;
85154;SDS011;75523;53.218;6.564;2024-03-08T09:09:07;299.17;;;283.10;;
85154;SDS011;75523;53.218;6.564;2024-03-08T09:11:36;292.63;;;276.90;;
85154;SDS011;75523;53.218;6.564;2024-03-08T09:14:06;285.17;;;269.83;;
85154;SDS011;75523;53.218;6.564;2024-03-08T09:16:32;287.65;;;272.35;;
85154;SDS011;75523;53.218;6.564;2024-03-08T09:18:58;291.50;;;276.15;;
85154;SDS011;75523;53.218;6.564;2024-03-08T09:21:23;291.35;;;275.45;;
85154;SDS011;75523;53.218;6.564;2024-03-08T09:23:49;281.38;;;265.77;;
85154;SDS011;75523;53.218;6.564;2024-03-08T09:26:15;288.17;;;272.15;;
85154;SDS011;75523;53.218;6.564;2024-03-08T09:28:40;303.35;;;286.98;;
85154;SDS011;75523;53.218;6.564;2024-03-08T09:31:06;292.38;;;276.38;;
85154;SDS011;75523;53.218;6.564;2024-03-08T09:33:31;293.83;;;277.60;;
85154;SDS011;75523;53.218;6.564;2024-03-08T09:35:57;286.00;;;270.48;;
85154;SDS011;75523;53.218;6.564;2024-03-08T09:38:23;293.80;;;278.08;;
85154;SDS011;75523;53.218;6.564;2024-03-08T09:40:50;287.75;;;272.15;;
85154;SDS011;75523;53.218;6.564;2024-03-08T09:43:16;290.85;;;274.83;;
85154;SDS011;75523;53.218;6.564;2024-03-08T09:45:43;309.07;;;292.30;;
85154;SDS011;75523;53.218;6.564;2024-03-08T09:48:11;294.65;;;278.38;;
85154;SDS011;75523;53.218;6.564;2024-03-08T09:50:38;288.35;;;272.25;;
85154;SDS011;75523;53.218;6.564;2024-03-08T09:53:04;289.88;;;273.85;;
85154;SDS011;75523;53.218;6.564;2024-03-08T09:55:29;301.52;;;284.88;;
85154;SDS011;75523;53.218;6.564;2024-03-08T09:57:59;290.88;;;274.98;;
85154;SDS011;75523;53.218;6.564;2024-03-08T10:00:44;289.20;;;273.50;;
85154;SDS011;75523;53.218;6.564;2024-03-08T10:03:10;289.33;;;273.52;;
85154;SDS011;75523;53.218;6.564;2024-03-08T10:05:36;295.30;;;278.75;;
85154;SDS011;75523;53.218;6.564;2024-03-08T10:08:01;291.75;;;275.75;;
85154;SDS011;75523;53.218;6.564;2024-03-08T10:10:27;274.45;;;259.20;;
85154;SDS011;75523;53.218;6.564;2024-03-08T10:12:52;283.40;;;267.88;;
85154;SDS011;75523;53.218;6.564;2024-03-08T10:15:18;282.13;;;266.45;;
85154;SDS011;75523;53.218;6.564;2024-03-08T10:17:43;292.40;;;276.27;;
85154;SDS011;75523;53.218;6.564;2024-03-08T10:20:18;280.88;;;265.20;;
85154;SDS011;75523;53.218;6.564;2024-03-08T10:22:44;287.50;;;271.42;;
85154;SDS011;75523;53.218;6.564;2024-03-08T10:25:12;291.40;;;275.33;;
85154;SDS011;75523;53.218;6.564;2024-03-08T10:27:41;270.98;;;255.85;;
85154;SDS011;75523;53.218;6.564;2024-03-08T10:30:10;287.13;;;270.83;;
85154;SDS011;75523;53.218;6.564;2024-03-08T10:32:39;292.92;;;276.83;;
85154;SDS011;75523;53.218;6.564;2024-03-08T10:35:06;297.33;;;281.10;;
85154;SDS011;75523;53.218;6.564;2024-03-08T10:37:33;277.30;;;261.63;;
85154;SDS011;75523;53.218;6.564;2024-03-08T10:40:04;281.92;;;266.42;;
85154;SDS011;75523;53.218;6.564;2024-03-08T10:42:35;276.60;;;261.17;;
85154;SDS011;75523;53.218;6.564;2024-03-08T10:45:06;281.08;;;265.55;;
85154;SDS011;75523;53.218;6.564;2024-03-08T10:47:40;276.35;;;260.98;;
85154;SDS011;75523;53.218;6.564;2024-03-08T10:52:41;271.17;;;255.73;;
85154;SDS011;75523;53.218;6.564;2024-03-08T10:55:07;277.10;;;261.60;;
85154;SDS011;75523;53.218;6.564;2024-03-08T10:57:38;282.30;;;266.83;;
85154;SDS011;75523;53.218;6.564;2024-03-08T11:00:04;276.52;;;261.08;;
85154;SDS011;75523;53.218;6.564;2024-03-08T11:02:37;287.48;;;271.63;;
85154;SDS011;75523;53.218;6.564;2024-03-08T11:05:07;283.92;;;268.40;;
85154;SDS011;75523;53.218;6.564;2024-03-08T11:07:41;272.77;;;257.42;;
85154;SDS011;75523;53.218;6.564;2024-03-08T11:10:18;281.08;;;265.42;;
85154;SDS011;75523;53.218;6.564;2024-03-08T11:12:44;286.65;;;270.48;;
85154;SDS011;75523;53.218;6.564;2024-03-08T11:15:11;284.63;;;268.85;;
85154;SDS011;75523;53.218;6.564;2024-03-08T11:20:14;278.02;;;262.52;;
85154;SDS011;75523;53.218;6.564;2024-03-08T11:25:49;284.67;;;269.17;;
85154;SDS011;75523;53.218;6.564;2024-03-08T11:28:14;278.58;;;263.20;;
85154;SDS011;75523;53.218;6.564;2024-03-08T11:30:44;287.02;;;270.88;;
85154;SDS011;75523;53.218;6.564;2024-03-08T11:33:12;281.60;;;265.90;;
85154;SDS011;75523;53.218;6.564;2024-03-08T11:35:38;278.17;;;262.87;;
85154;SDS011;75523;53.218;6.564;2024-03-08T11:38:04;275.13;;;259.98;;
85154;SDS011;75523;53.218;6.564;2024-03-08T11:40:29;291.08;;;275.15;;
85154;SDS011;75523;53.218;6.564;2024-03-08T11:42:55;286.40;;;270.33;;
85154;SDS011;75523;53.218;6.564;2024-03-08T11:45:20;280.77;;;265.20;;
85154;SDS011;75523;53.218;6.564;2024-03-08T11:47:48;283.60;;;267.65;;
85154;SDS011;75523;53.218;6.564;2024-03-08T11:50:14;288.23;;;272.52;;
85154;SDS011;75523;53.218;6.564;2024-03-08T11:52:40;293.15;;;277.17;;
85154;SDS011;75523;53.218;6.564;2024-03-08T11:55:06;288.65;;;272.50;;
85154;SDS011;75523;53.218;6.564;2024-03-08T11:57:31;282.67;;;266.90;;
85154;SDS011;75523;53.218;6.564;2024-03-08T11:59:57;282.95;;;267.40;;
85154;SDS011;75523;53.218;6.564;2024-03-08T12:02:26;272.95;;;257.63;;
85154;SDS011;75523;53.218;6.564;2024-03-08T12:04:56;281.63;;;265.92;;
85154;SDS011;75523;53.218;6.564;2024-03-08T12:07:22;272.20;;;256.75;;
85154;SDS011;75523;53.218;6.564;2024-03-08T12:15:13;279.65;;;264.17;;
85154;SDS011;75523;53.218;6.564;2024-03-08T12:17:40;284.33;;;268.65;;
85154;SDS011;75523;53.218;6.564;2024-03-08T12:20:15;283.52;;;267.73;;
85154;SDS011;75523;53.218;6.564;2024-03-08T12:22:48;293.25;;;277.00;;
85154;SDS011;75523;53.218;6.564;2024-03-08T12:27:40;280.67;;;265.13;;
85154;SDS011;75523;53.218;6.564;2024-03-08T12:32:55;280.98;;;265.55;;
85154;SDS011;75523;53.218;6.564;2024-03-08T12:35:25;289.45;;;273.58;;
85154;SDS011;75523;53.218;6.564;2024-03-08T12:37:55;281.73;;;265.98;;
85154;SDS011;75523;53.218;6.564;2024-03-08T12:40:31;285.77;;;269.63;;
85154;SDS011;75523;53.218;6.564;2024-03-08T12:42:58;287.20;;;271.15;;
85154;SDS011;75523;53.218;6.564;2024-03-08T12:45:24;281.20;;;265.77;;
85154;SDS011;75523;53.218;6.564;2024-03-08T12:47:52;279.70;;;264.20;;
85154;SDS011;75523;53.218;6.564;2024-03-08T12:50:21;285.40;;;269.60;;
85154;SDS011;75523;53.218;6.564;2024-03-08T12:52:47;284.45;;;268.92;;
85154;SDS011;75523;53.218;6.564;2024-03-08T12:55:13;283.15;;;267.48;;
85154;SDS011;75523;53.218;6.564;2024-03-08T12:57:41;282.75;;;267.27;;
85154;SDS011;75523;53.218;6.564;2024-03-08T13:00:07;285.63;;;270.08;;
85154;SDS011;75523;53.218;6.564;2024-03-08T13:02:38;278.23;;;263.00;;
85154;SDS011;75523;53.218;6.564;2024-03-08T13:05:04;282.00;;;266.63;;
85154;SDS011;75523;53.218;6.564;2024-03-08T13:07:30;287.42;;;271.65;;
85154;SDS011;75523;53.218;6.564;2024-03-08T13:09:56;281.42;;;266.00;;
85154;SDS011;75523;53.218;6.564;2024-03-08T13:12:24;286.98;;;271.20;;
85154;SDS011;75523;53.218;6.564;2024-03-08T13:14:50;289.00;;;273.02;;
85154;SDS011;75523;53.218;6.564;2024-03-08T13:17:16;283.48;;;268.10;;
85154;SDS011;75523;53.218;6.564;2024-03-08T13:19:43;278.48;;;263.38;;
85154;SDS011;75523;53.218;6.564;2024-03-08T13:22:09;294.48;;;278.52;;
85154;SDS011;75523;53.218;6.564;2024-03-08T13:24:38;285.48;;;269.73;;
85154;SDS011;75523;53.218;6.564;2024-03-08T13:27:06;278.77;;;263.63;;
85154;SDS011;75523;53.218;6.564;2024-03-08T13:29:42;278.15;;;263.08;;
85154;SDS011;75523;53.218;6.564;2024-03-08T13:32:08;278.33;;;263.15;;
85154;SDS011;75523;53.218;6.564;2024-03-08T13:34:37;270.63;;;255.82;;
85154;SDS011;75523;53.218;6.564;2024-03-08T13:37:03;276.93;;;262.03;;
85154;SDS011;75523;53.218;6.564;2024-03-08T13:39:31;280.48;;;265.27;;
85154;SDS011;75523;53.218;6.564;2024-03-08T13:42:06;291.17;;;275.58;;
85154;SDS011;75523;53.218;6.564;2024-03-08T13:44:35;295.40;;;279.27;;
85154;SDS011;75523;53.218;6.564;2024-03-08T13:47:01;287.38;;;272.08;;
85154;SDS011;75523;53.218;6.564;2024-03-08T13:49:29;290.92;;;275.27;;
85154;SDS011;75523;53.218;6.564;2024-03-08T13:51:55;289.65;;;273.65;;
85154;SDS011;75523;53.218;6.564;2024-03-08T13:54:23;281.95;;;266.45;;
85154;SDS011;75523;53.218;6.564;2024-03-08T13:56:49;283.23;;;268.00;;
85154;SDS011;75523;53.218;6.564;2024-03-08T13:59:15;280.17;;;265.10;;
85154;SDS011;75523;53.218;6.564;2024-03-08T14:01:40;277.63;;;262.67;;
85154;SDS011;75523;53.218;6.564;2024-03-08T14:04:05;272.38;;;257.52;;
85154;SDS011;75523;53.218;6.564;2024-03-08T14:06:33;277.30;;;262.38;;
85154;SDS011;75523;53.218;6.564;2024-03-08T14:08:58;278.15;;;263.10;;
85154;SDS011;75523;53.218;6.564;2024-03-08T14:11:24;279.40;;;264.08;;
85154;SDS011;75523;53.218;6.564;2024-03-08T14:13:49;280.10;;;264.73;;
85154;SDS011;75523;53.218;6.564;2024-03-08T14:16:15;285.63;;;270.25;;